Time;durP1;ratioP1;P1;durP2;ratioP2;P2;SDS_P1;SDS_P2;PMS_P1;PMS_P2;Temp;Humidity;BMP_temperature;BMP_pressure;BME280_temperature;BME280_humidity;BME280_pressure;Samples;Min_cycle;Max_cycle;Signal;HPM_P1;HPM_P2
2021/05/10 00:01:02;;;;;;;6.93;6.22;;;17.90;75.60;;;;;;5103974;27;20562;-62
2021/05/10 00:03:28;;;;;;;7.32;6.18;;;17.90;75.70;;;;;;5103286;27;20039;-63
2021/05/10 00:05:54;;;;;;;7.30;6.10;;;17.90;75.50;;;;;;5106036;28;20046;-63
2021/05/10 00:08:25;;;;;;;7.88;6.05;;;17.80;76.30;;;;;;5084759;28;20032;-62
2021/05/10 00:10:51;;;;;;;7.35;6.38;;;17.30;76.20;;;;;;5081660;28;20112;-62
2021/05/10 00:13:18;;;;;;;8.02;5.80;;;17.70;76.30;;;;;;5106263;27;20479;-62
2021/05/10 00:15:46;;;;;;;7.63;6.40;;;17.60;76.70;;;;;;5107914;28;20089;-62
2021/05/10 00:18:17;;;;;;;7.53;5.75;;;17.60;78.00;;;;;;5089241;28;20581;-61
2021/05/10 00:20:45;;;;;;;7.50;5.85;;;17.50;77.70;;;;;;5104769;28;20059;-62
2021/05/10 00:23:12;;;;;;;7.70;6.20;;;17.40;78.90;;;;;;5105918;27;20507;-62
2021/05/10 00:25:38;;;;;;;6.25;5.65;;;17.30;78.00;;;;;;5106978;27;20044;-62
2021/05/10 00:28:05;;;;;;;7.15;6.13;;;17.30;77.80;;;;;;5106677;28;20118;-62
2021/05/10 00:30:33;;;;;;;6.78;5.70;;;17.30;77.60;;;;;;5109094;28;20070;-62
2021/05/10 00:33:00;;;;;;;7.95;6.32;;;17.20;77.70;;;;;;5107922;27;20042;-62
2021/05/10 00:35:26;;;;;;;8.35;6.22;;;18.20;79.20;;;;;;5102593;28;20032;-62
2021/05/10 00:37:53;;;;;;;7.75;6.10;;;17.10;78.30;;;;;;5080224;28;20043;-62
2021/05/10 00:40:21;;;;;;;6.78;5.35;;;17.10;78.10;;;;;;5106775;28;20083;-62
2021/05/10 00:42:48;;;;;;;7.37;5.83;;;17.20;78.70;;;;;;5106821;27;20054;-62
2021/05/10 00:45:14;;;;;;;7.00;6.30;;;16.80;78.30;;;;;;5102661;27;20530;-62
2021/05/10 00:47:40;;;;;;;7.25;6.18;;;16.90;78.30;;;;;;5107810;28;20032;-62
2021/05/10 00:50:09;;;;;;;6.45;5.60;;;16.90;79.10;;;;;;5108561;28;20042;-62
2021/05/10 00:52:35;;;;;;;7.88;6.30;;;16.80;79.90;;;;;;5103171;27;20689;-62
2021/05/10 00:55:05;;;;;;;9.07;7.10;;;16.80;79.50;;;;;;5102018;27;20051;-62
2021/05/10 00:57:36;;;;;;;7.45;6.68;;;16.80;79.50;;;;;;5117025;27;20065;-62
2021/05/10 01:00:11;;;;;;;9.02;7.13;;;16.60;80.50;;;;;;5098763;28;20043;-62
2021/05/10 01:02:39;;;;;;;7.75;6.93;;;16.70;80.90;;;;;;5104580;28;20092;-62
2021/05/10 01:05:06;;;;;;;8.88;6.97;;;16.70;80.10;;;;;;5086585;28;20051;-62
2021/05/10 01:07:33;;;;;;;9.10;7.32;;;17.80;81.50;;;;;;5105338;28;20035;-62
2021/05/10 01:10:00;;;;;;;9.77;7.30;;;16.70;80.10;;;;;;5104015;28;20031;-62
2021/05/10 01:12:26;;;;;;;9.88;7.40;;;16.70;80.10;;;;;;5106068;27;20061;-62
2021/05/10 01:14:51;;;;;;;8.98;7.43;;;16.20;79.80;;;;;;5105486;28;20239;-62
2021/05/10 01:17:39;;;;;;;10.48;8.00;;;16.70;80.00;;;;;;5090456;28;20047;-62
2021/05/10 01:20:07;;;;;;;8.90;7.97;;;16.40;79.90;;;;;;5107985;28;20052;-62
2021/05/10 01:22:44;;;;;;;8.10;7.22;;;16.70;80.10;;;;;;5106729;28;20063;-62
2021/05/10 01:25:31;;;;;;;8.85;7.45;;;16.80;80.60;;;;;;5105931;28;20122;-63
2021/05/10 01:27:58;;;;;;;8.05;7.25;;;16.80;80.60;;;;;;5102158;28;20401;-62
2021/05/10 01:30:28;;;;;;;8.77;7.70;;;16.80;80.50;;;;;;5108369;28;20046;-62
2021/05/10 01:32:55;;;;;;;8.95;7.60;;;16.70;80.50;;;;;;5108125;28;20027;-62
2021/05/10 01:35:24;;;;;;;8.65;7.75;;;17.20;81.30;;;;;;5103081;28;20070;-62
2021/05/10 01:37:51;;;;;;;8.68;7.30;;;17.10;81.00;;;;;;5099350;28;20032;-61
2021/05/10 01:40:17;;;;;;;13.55;7.53;;;16.80;80.70;;;;;;5085818;28;20565;-62
2021/05/10 01:42:43;;;;;;;7.75;7.03;;;16.80;80.60;;;;;;5104880;28;20043;-62
2021/05/10 01:45:10;;;;;;;7.80;7.00;;;16.80;80.50;;;;;;5106985;28;20040;-62
2021/05/10 01:48:00;;;;;;;7.43;6.65;;;15.00;80.10;;;;;;5089086;28;20468;-62
2021/05/10 01:50:36;;;;;;;7.75;6.95;;;16.80;82.00;;;;;;5108507;28;20054;-62
2021/05/10 01:53:02;;;;;;;9.35;6.97;;;16.80;80.80;;;;;;5112955;28;20047;-63
2021/05/10 01:55:28;;;;;;;7.85;7.05;;;16.80;80.90;;;;;;5110591;27;20104;-62
2021/05/10 01:57:59;;;;;;;10.55;7.38;;;16.80;81.00;;;;;;5109500;27;20035;-62
2021/05/10 02:00:28;;;;;;;10.00;7.43;;;16.70;80.70;;;;;;5104833;28;20484;-62
2021/05/10 02:03:05;;;;;;;9.43;7.43;;;16.80;81.40;;;;;;5112065;28;20044;-62
2021/05/10 02:05:32;;;;;;;8.05;6.93;;;15.50;80.50;;;;;;5103373;27;20043;-63
2021/05/10 02:08:00;;;;;;;8.02;7.22;;;17.20;81.70;;;;;;5107737;27;20038;-63
2021/05/10 02:10:30;;;;;;;9.13;8.07;;;16.70;81.30;;;;;;5081688;28;20039;-63
2021/05/10 02:13:04;;;;;;;9.10;7.32;;;16.70;82.10;;;;;;5109482;27;20050;-63
2021/05/10 02:15:43;;;;;;;9.65;7.50;;;16.60;81.90;;;;;;5110668;28;20182;-63
2021/05/10 02:18:11;;;;;;;9.02;8.10;;;16.60;82.20;;;;;;5110022;27;20027;-63
2021/05/10 02:20:37;;;;;;;9.52;7.72;;;16.80;82.60;;;;;;5107851;27;20028;-63
2021/05/10 02:23:05;;;;;;;8.55;7.75;;;16.60;82.30;;;;;;5110521;28;20093;-63
2021/05/10 02:25:53;;;;;;;9.13;7.47;;;16.60;82.40;;;;;;5108593;27;20480;-63
2021/05/10 02:28:23;;;;;;;9.13;8.05;;;16.50;83.50;;;;;;5111470;28;20054;-63
2021/05/10 02:30:50;;;;;;;8.48;7.63;;;16.60;82.90;;;;;;5105929;27;20043;-62
2021/05/10 02:33:18;;;;;;;9.93;8.43;;;16.60;82.80;;;;;;5100434;27;20073;-62
2021/05/10 02:35:51;;;;;;;9.52;8.52;;;16.60;83.00;;;;;;5092052;28;20055;-63
2021/05/10 02:38:18;;;;;;;8.82;7.40;;;16.60;83.10;;;;;;5112054;27;20495;-62
2021/05/10 02:40:44;;;;;;;8.48;7.57;;;16.60;83.00;;;;;;5109633;28;20047;-62
2021/05/10 02:43:21;;;;;;;8.63;7.38;;;17.20;83.30;;;;;;5109554;28;20492;-63
2021/05/10 02:45:48;;;;;;;9.45;8.10;;;16.60;82.90;;;;;;5087528;28;20073;-63
2021/05/10 02:48:14;;;;;;;9.40;7.63;;;17.70;83.70;;;;;;5091827;28;20043;-62
2021/05/10 02:50:40;;;;;;;8.85;7.72;;;16.60;83.10;;;;;;5106065;27;20059;-62
2021/05/10 02:53:06;;;;;;;8.18;7.00;;;16.70;83.00;;;;;;5110885;28;20031;-62
2021/05/10 02:55:32;;;;;;;8.77;7.05;;;16.60;82.80;;;;;;5105304;27;20032;-62
2021/05/10 02:57:58;;;;;;;8.02;7.22;;;16.60;82.80;;;;;;5110456;27;20031;-62
2021/05/10 03:00:26;;;;;;;13.98;7.85;;;16.60;82.90;;;;;;5109795;28;20042;-63
2021/05/10 03:02:53;;;;;;;9.23;7.72;;;16.60;82.90;;;;;;5110249;28;20469;-62
2021/05/10 03:05:20;;;;;;;9.73;8.40;;;16.70;83.60;;;;;;5109357;28;20052;-62
2021/05/10 03:07:46;;;;;;;8.68;7.75;;;16.60;83.40;;;;;;5106037;27;20035;-62
2021/05/10 03:10:15;;;;;;;10.20;7.82;;;16.60;83.50;;;;;;5098215;28;20412;-62
2021/05/10 03:12:43;;;;;;;8.18;7.28;;;16.70;83.90;;;;;;5101316;27;20396;-62
2021/05/10 03:15:12;;;;;;;8.68;7.78;;;16.60;83.70;;;;;;5111932;28;20416;-62
2021/05/10 03:17:39;;;;;;;9.98;8.02;;;16.70;83.60;;;;;;5091785;28;20434;-62
2021/05/10 03:20:11;;;;;;;8.75;7.85;;;16.70;83.50;;;;;;5108506;28;20047;-62
2021/05/10 03:22:37;;;;;;;8.55;7.65;;;16.70;83.20;;;;;;5108330;27;20080;-62
2021/05/10 03:25:04;;;;;;;8.55;7.60;;;16.70;83.30;;;;;;5089920;27;20043;-62
2021/05/10 03:27:39;;;;;;;12.00;8.02;;;16.70;83.10;;;;;;5109592;28;20035;-62
2021/05/10 03:30:11;;;;;;;10.52;7.60;;;16.70;83.30;;;;;;5111420;28;20053;-62
2021/05/10 03:32:37;;;;;;;9.13;7.85;;;16.70;83.00;;;;;;5108637;28;20507;-62
2021/05/10 03:35:05;;;;;;;10.00;7.45;;;16.80;82.90;;;;;;5109723;28;20039;-62
2021/05/10 03:37:32;;;;;;;8.65;7.45;;;16.70;82.90;;;;;;5106155;27;20119;-61
2021/05/10 03:39:58;;;;;;;9.60;7.18;;;16.70;82.70;;;;;;5107514;28;20139;-62
2021/05/10 03:42:24;;;;;;;9.43;7.32;;;16.70;82.70;;;;;;5099078;28;20040;-62
2021/05/10 03:44:50;;;;;;;8.02;6.70;;;16.70;82.60;;;;;;5106923;27;20036;-62
2021/05/10 03:47:16;;;;;;;7.65;6.85;;;16.80;82.30;;;;;;5092292;28;20046;-62
2021/05/10 03:49:42;;;;;;;7.80;6.65;;;16.80;82.10;;;;;;5088658;27;20043;-62
2021/05/10 03:52:08;;;;;;;7.55;6.22;;;16.80;81.70;;;;;;5107240;27;20412;-63
2021/05/10 03:54:34;;;;;;;8.88;6.18;;;16.90;81.30;;;;;;5108718;27;20053;-62
2021/05/10 03:57:00;;;;;;;6.38;5.15;;;16.90;81.00;;;;;;5107513;28;20140;-63
2021/05/10 03:59:27;;;;;;;5.47;4.80;;;16.90;80.20;;;;;;5108981;27;20089;-62
2021/05/10 04:01:53;;;;;;;6.03;4.95;;;16.50;78.90;;;;;;5099495;28;20512;-63
2021/05/10 04:04:26;;;;;;;6.15;4.20;;;17.30;79.20;;;;;;5090741;28;20468;-63
2021/05/10 04:14:48;;;;;;;5.90;3.72;;;16.90;78.30;;;;;;5103812;27;20300;-63
2021/05/10 04:17:14;;;;;;;3.78;3.10;;;16.90;77.60;;;;;;5087887;28;20035;-63
2021/05/10 04:19:40;;;;;;;4.50;3.42;;;16.90;78.00;;;;;;5092494;28;20080;-62
2021/05/10 04:22:06;;;;;;;3.85;3.45;;;16.90;77.20;;;;;;5070005;28;20036;-63
2021/05/10 04:24:32;;;;;;;3.90;3.50;;;16.90;77.00;;;;;;5106215;27;20085;-63
2021/05/10 04:26:59;;;;;;;4.95;3.08;;;17.00;76.30;;;;;;5104195;27;20549;-62
2021/05/10 04:29:27;;;;;;;6.07;3.30;;;16.90;76.10;;;;;;5102738;28;20040;-63
2021/05/10 04:31:53;;;;;;;4.20;2.90;;;16.90;75.70;;;;;;5105885;27;20043;-63
2021/05/10 04:34:19;;;;;;;4.65;3.20;;;16.90;75.70;;;;;;5102629;28;20040;-63
2021/05/10 04:36:45;;;;;;;4.00;2.88;;;16.90;75.50;;;;;;5109230;27;20050;-63
2021/05/10 04:39:10;;;;;;;5.15;2.70;;;16.90;75.70;;;;;;5104800;28;20472;-63
2021/05/10 04:41:37;;;;;;;5.15;2.95;;;16.90;75.50;;;;;;5088355;28;20050;-62
2021/05/10 04:44:03;;;;;;;5.78;3.03;;;16.90;75.40;;;;;;5108168;28;20043;-63
2021/05/10 04:46:29;;;;;;;4.35;2.70;;;16.90;74.90;;;;;;5103698;27;20039;-63
2021/05/10 04:48:55;;;;;;;3.70;2.70;;;16.90;74.70;;;;;;5109589;28;20484;-62
2021/05/10 04:51:21;;;;;;;3.30;2.40;;;17.30;73.50;;;;;;5105638;28;20043;-64
2021/05/10 04:53:47;;;;;;;4.63;2.80;;;16.90;74.10;;;;;;5108801;27;20043;-63
2021/05/10 04:56:13;;;;;;;3.97;2.80;;;16.90;74.10;;;;;;5103729;28;20104;-61
2021/05/10 04:58:38;;;;;;;4.70;2.90;;;16.90;73.10;;;;;;5102230;28;20028;-63
2021/05/10 05:01:04;;;;;;;5.43;2.70;;;16.70;73.20;;;;;;5104999;27;20044;-62
2021/05/10 05:03:30;;;;;;;3.80;2.60;;;16.80;73.80;;;;;;5105264;28;20075;-62
2021/05/10 05:05:56;;;;;;;3.53;2.40;;;16.80;73.70;;;;;;5102526;28;20032;-63
2021/05/10 05:08:25;;;;;;;4.35;2.60;;;16.80;73.10;;;;;;5099426;28;20051;-62
2021/05/10 05:10:55;;;;;;;2.85;2.45;;;16.70;73.30;;;;;;5087066;28;20113;-62
2021/05/10 05:13:26;;;;;;;4.82;2.70;;;16.80;72.60;;;;;;5098102;28;20043;-62
2021/05/10 05:15:52;;;;;;;3.88;2.55;;;16.70;73.20;;;;;;5099159;28;20032;-62
2021/05/10 05:18:19;;;;;;;3.22;2.38;;;16.80;73.40;;;;;;5096535;28;20493;-63
2021/05/10 05:20:45;;;;;;;5.18;3.17;;;16.80;73.30;;;;;;5095377;28;20050;-63
2021/05/10 05:23:37;;;;;;;3.40;2.75;;;16.80;72.90;;;;;;5079963;28;20070;-63
2021/05/10 05:26:04;;;;;;;3.10;2.40;;;16.90;73.20;;;;;;5101707;28;20062;-62
2021/05/10 05:28:32;;;;;;;4.13;2.60;;;16.60;72.60;;;;;;5112647;28;20080;-62
2021/05/10 05:30:59;;;;;;;4.30;2.90;;;17.00;73.40;;;;;;5101914;27;20032;-63
2021/05/10 05:33:26;;;;;;;3.90;2.38;;;17.30;73.00;;;;;;5114292;28;20039;-63
2021/05/10 05:35:52;;;;;;;4.25;2.40;;;17.20;73.40;;;;;;5113388;28;20078;-63
2021/05/10 05:38:19;;;;;;;2.88;2.33;;;17.30;72.70;;;;;;5100235;27;20073;-61
2021/05/10 05:40:45;;;;;;;4.13;2.53;;;17.10;72.50;;;;;;5094123;28;20036;-62
2021/05/10 05:43:12;;;;;;;4.10;2.78;;;17.40;70.30;;;;;;5108351;27;20119;-61
2021/05/10 05:45:40;;;;;;;3.20;2.22;;;17.70;71.50;;;;;;5114289;28;20047;-61
2021/05/10 05:48:08;;;;;;;3.80;2.40;;;17.80;71.30;;;;;;5108167;27;20050;-62
2021/05/10 05:50:35;;;;;;;4.88;2.30;;;18.00;70.40;;;;;;5111518;27;20028;-62
2021/05/10 05:53:02;;;;;;;4.18;2.30;;;18.20;68.70;;;;;;5111020;27;20046;-62
2021/05/10 05:55:28;;;;;;;4.32;2.20;;;18.70;68.90;;;;;;5094804;27;20064;-62
2021/05/10 05:57:56;;;;;;;2.85;2.47;;;18.20;69.30;;;;;;5109447;27;20035;-62
2021/05/10 06:00:22;;;;;;;4.50;2.47;;;18.70;67.90;;;;;;5110068;28;20123;-62
2021/05/10 06:02:48;;;;;;;3.22;2.50;;;18.40;68.40;;;;;;5103724;27;20392;-62
2021/05/10 06:05:15;;;;;;;3.65;2.40;;;18.50;67.90;;;;;;5114984;28;20042;-60
2021/05/10 06:07:42;;;;;;;5.30;2.50;;;18.60;68.10;;;;;;5095873;28;20512;-61
2021/05/10 06:10:10;;;;;;;3.45;2.60;;;18.70;67.40;;;;;;5103761;28;20039;-60
2021/05/10 06:12:44;;;;;;;5.40;3.05;;;18.80;66.10;;;;;;5094600;27;20039;-61
2021/05/10 06:15:10;;;;;;;3.47;2.22;;;18.90;66.40;;;;;;5114434;28;20040;-61
2021/05/10 06:17:37;;;;;;;3.85;2.38;;;19.00;66.00;;;;;;5110448;27;20036;-60
2021/05/10 06:20:04;;;;;;;3.97;2.63;;;19.10;65.20;;;;;;5095264;28;20042;-60
2021/05/10 06:22:30;;;;;;;3.45;2.15;;;19.20;65.50;;;;;;5106219;28;20035;-61
2021/05/10 06:24:57;;;;;;;3.80;2.30;;;19.30;64.80;;;;;;5109712;27;20108;-61
2021/05/10 06:27:23;;;;;;;4.25;2.13;;;19.40;64.70;;;;;;5113450;27;20036;-61
2021/05/10 06:29:49;;;;;;;3.75;2.63;;;19.40;65.10;;;;;;5111186;27;20046;-61
2021/05/10 06:32:14;;;;;;;3.55;2.42;;;19.40;63.80;;;;;;5102805;27;20039;-61
2021/05/10 06:34:40;;;;;;;4.18;2.42;;;19.30;62.50;;;;;;5109677;27;20092;-61
2021/05/10 06:37:06;;;;;;;4.38;2.10;;;19.40;63.10;;;;;;5094568;27;20043;-61
2021/05/10 06:39:32;;;;;;;3.67;2.50;;;19.30;63.80;;;;;;5090728;28;20492;-61
2021/05/10 06:41:58;;;;;;;3.60;2.00;;;19.30;63.50;;;;;;5100826;28;20039;-61
2021/05/10 06:44:24;;;;;;;3.70;2.05;;;19.30;62.90;;;;;;5108016;27;20047;-61
2021/05/10 06:46:49;;;;;;;4.13;2.17;;;19.40;61.70;;;;;;5101167;27;20074;-61
2021/05/10 06:49:15;;;;;;;3.45;2.00;;;19.40;61.90;;;;;;5093859;28;20389;-61
2021/05/10 06:51:41;;;;;;;4.47;2.20;;;19.50;61.00;;;;;;5105818;27;20063;-61
2021/05/10 06:54:07;;;;;;;2.70;2.00;;;19.50;60.30;;;;;;5109834;27;20063;-60
2021/05/10 06:56:33;;;;;;;4.50;2.15;;;19.80;59.00;;;;;;5108107;27;20078;-60
2021/05/10 06:58:59;;;;;;;3.47;2.10;;;19.90;58.00;;;;;;5107384;27;20042;-61
2021/05/10 07:01:24;;;;;;;2.42;1.85;;;20.00;56.80;;;;;;5110269;28;20465;-61
2021/05/10 07:03:50;;;;;;;4.38;2.20;;;20.20;57.60;;;;;;5109657;27;20146;-61
2021/05/10 07:06:16;;;;;;;4.40;2.08;;;20.30;56.40;;;;;;5110465;27;20040;-60
2021/05/10 07:08:42;;;;;;;3.13;2.10;;;20.40;57.90;;;;;;5109952;27;20034;-60
2021/05/10 07:11:08;;;;;;;4.20;1.90;;;20.50;58.00;;;;;;5089175;28;20122;-61
2021/05/10 07:13:35;;;;;;;4.30;2.30;;;20.60;56.50;;;;;;5123130;27;20047;-60
2021/05/10 07:16:01;;;;;;;3.15;2.00;;;20.70;55.30;;;;;;5107399;27;20575;-60
2021/05/10 07:18:27;;;;;;;3.50;2.13;;;20.70;54.90;;;;;;5109039;28;20042;-60
2021/05/10 07:20:53;;;;;;;4.13;1.98;;;20.70;55.30;;;;;;5106496;28;20468;-60
2021/05/10 07:23:19;;;;;;;4.95;2.20;;;20.70;54.80;;;;;;5109369;28;20032;-60
2021/05/10 07:25:47;;;;;;;3.55;2.40;;;20.80;55.80;;;;;;5090609;28;20613;-62
2021/05/10 07:28:15;;;;;;;3.95;2.10;;;21.40;51.70;;;;;;5105415;27;20035;-61
2021/05/10 07:30:41;;;;;;;4.75;2.88;;;22.10;49.80;;;;;;5109580;28;20084;-61
2021/05/10 07:33:07;;;;;;;3.92;2.00;;;22.70;47.90;;;;;;5102071;27;20089;-61
2021/05/10 07:35:34;;;;;;;3.00;2.10;;;23.10;46.30;;;;;;5108240;28;20084;-62
2021/05/10 07:38:00;;;;;;;8.05;1.90;;;23.30;47.00;;;;;;5108851;27;20096;-61
2021/05/10 07:40:27;;;;;;;3.55;1.90;;;23.70;45.60;;;;;;5104979;28;20112;-61
2021/05/10 07:42:54;;;;;;;2.85;1.60;;;23.70;46.00;;;;;;5107349;28;20104;-61
2021/05/10 07:45:20;;;;;;;3.08;1.80;;;23.90;45.10;;;;;;5106543;28;20103;-61
2021/05/10 07:47:49;;;;;;;2.97;2.05;;;23.70;45.90;;;;;;5104369;28;20141;-61
2021/05/10 07:50:16;;;;;;;6.15;1.90;;;23.80;44.90;;;;;;5091391;28;20080;-62
2021/05/10 07:52:41;;;;;;;3.10;1.58;;;23.70;45.40;;;;;;5108761;28;20087;-61
2021/05/10 07:55:08;;;;;;;3.80;1.40;;;23.60;44.80;;;;;;5090921;28;20110;-60
2021/05/10 07:57:34;;;;;;;5.38;1.75;;;23.60;44.80;;;;;;5106406;27;20560;-61
2021/05/10 08:00:03;;;;;;;4.80;1.80;;;23.70;45.30;;;;;;5102915;27;20080;-61
2021/05/10 08:02:31;;;;;;;4.55;1.65;;;24.10;44.70;;;;;;5108957;27;20046;-61
2021/05/10 08:05:05;;;;;;;2.25;1.40;;;23.70;45.10;;;;;;5110315;28;20123;-62
2021/05/10 08:07:32;;;;;;;2.00;1.60;;;23.30;45.70;;;;;;5106895;28;20378;-62
2021/05/10 08:09:58;;;;;;;3.65;1.65;;;22.80;46.70;;;;;;5105569;27;20164;-61
2021/05/10 08:12:24;;;;;;;1.92;1.55;;;22.00;47.90;;;;;;5107871;27;20039;-61
2021/05/10 08:14:50;;;;;;;3.65;1.63;;;21.90;48.40;;;;;;5101082;28;20521;-61
2021/05/10 08:17:17;;;;;;;3.53;1.85;;;21.70;50.00;;;;;;5108423;28;20031;-61
2021/05/10 08:19:43;;;;;;;2.90;1.35;;;21.10;51.30;;;;;;5105282;27;20036;-61
2021/05/10 08:22:09;;;;;;;1.70;1.20;;;21.30;51.70;;;;;;5105582;27;20811;-62
2021/05/10 08:24:35;;;;;;;3.28;1.55;;;21.30;51.70;;;;;;5108205;28;20050;-60
2021/05/10 08:27:01;;;;;;;2.42;1.50;;;21.10;51.60;;;;;;5105167;27;20051;-61
2021/05/10 08:29:28;;;;;;;2.33;1.70;;;21.00;52.50;;;;;;5069585;28;20050;-62
2021/05/10 08:31:55;;;;;;;2.60;1.70;;;20.80;52.60;;;;;;5102133;27;20040;-62
2021/05/10 08:34:21;;;;;;;2.17;1.73;;;20.70;53.10;;;;;;5083633;28;20439;-62
2021/05/10 08:36:47;;;;;;;2.58;1.40;;;20.50;54.50;;;;;;5097910;28;20100;-62
2021/05/10 08:39:13;;;;;;;2.53;1.58;;;20.60;56.70;;;;;;5083098;28;20043;-62
2021/05/10 08:41:40;;;;;;;2.15;1.73;;;20.30;56.90;;;;;;5106764;28;20124;-62
2021/05/10 08:44:07;;;;;;;2.85;1.58;;;20.20;58.10;;;;;;5103998;28;20044;-61
2021/05/10 08:46:34;;;;;;;3.40;1.80;;;20.20;58.60;;;;;;5089576;28;20037;-61
2021/05/10 08:49:01;;;;;;;3.75;1.85;;;20.20;58.60;;;;;;5109110;28;20036;-61
2021/05/10 08:51:29;;;;;;;3.63;1.55;;;20.10;57.40;;;;;;5087432;28;20036;-61
2021/05/10 08:53:55;;;;;;;2.22;1.60;;;20.10;57.60;;;;;;5107200;28;20063;-61
2021/05/10 08:56:21;;;;;;;2.50;1.63;;;19.90;56.90;;;;;;5088043;28;20067;-62
2021/05/10 08:58:47;;;;;;;2.47;1.40;;;20.00;56.40;;;;;;5102939;28;20056;-62
2021/05/10 09:01:17;;;;;;;2.47;1.70;;;20.00;57.80;;;;;;5100483;28;20136;-61
2021/05/10 09:03:47;;;;;;;;;;;20.20;56.20;;;;;;5104553;27;20044;-62
2021/05/10 09:06:15;;;;;;;1.42;1.05;;;20.40;55.60;;;;;;5099829;28;20494;-62
2021/05/10 09:08:45;;;;;;;1.13;1.05;;;20.70;55.60;;;;;;5107082;27;20122;-62
2021/05/10 09:11:13;;;;;;;1.85;1.10;;;20.90;55.10;;;;;;5093932;27;20039;-62
2021/05/10 09:13:46;;;;;;;2.78;1.33;;;21.10;53.20;;;;;;5106963;28;20090;-62
2021/05/10 09:16:14;;;;;;;3.25;1.20;;;21.30;53.60;;;;;;5096912;28;20169;-62
2021/05/10 09:18:50;;;;;;;1.98;1.63;;;21.70;52.60;;;;;;5106105;28;20093;-62
2021/05/10 09:21:19;;;;;;;1.45;1.20;;;22.10;51.70;;;;;;5108159;28;20172;-62
2021/05/10 09:23:45;;;;;;;1.05;0.95;;;22.20;52.90;;;;;;5098475;28;20098;-62
2021/05/10 09:26:14;;;;;;;3.55;1.50;;;22.00;51.80;;;;;;5102786;28;20133;-62
2021/05/10 09:28:43;;;;;;;1.77;1.35;;;22.10;51.80;;;;;;5105179;28;20138;-62
2021/05/10 09:31:10;;;;;;;1.83;1.33;;;22.00;51.60;;;;;;5107590;28;20024;-61
2021/05/10 09:33:45;;;;;;;3.50;1.13;;;21.80;51.20;;;;;;5106605;28;20036;-61
2021/05/10 09:36:30;;;;;;;1.88;1.35;;;21.50;52.70;;;;;;5099489;28;20035;-61
2021/05/10 09:38:56;;;;;;;2.35;1.60;;;21.20;53.70;;;;;;5096766;28;20032;-62
2021/05/10 09:41:22;;;;;;;3.20;1.60;;;21.00;54.10;;;;;;5099926;28;20054;-62
2021/05/10 09:43:59;;;;;;;1.48;1.38;;;20.80;54.00;;;;;;5093329;28;20040;-62
2021/05/10 09:46:37;;;;;;;3.05;1.80;;;20.80;54.70;;;;;;5099560;28;20038;-62
2021/05/10 09:49:03;;;;;;;1.70;1.55;;;20.50;54.90;;;;;;5101893;28;20043;-62
2021/05/10 09:51:29;;;;;;;2.33;1.70;;;20.60;55.30;;;;;;5105417;28;20055;-62
2021/05/10 09:53:57;;;;;;;2.72;1.77;;;20.60;55.60;;;;;;5106757;28;20097;-62
2021/05/10 09:58:51;;;;;;;1.75;1.50;;;20.80;55.30;;;;;;5102723;28;20036;-61
2021/05/10 10:01:17;;;;;;;3.45;2.10;;;21.50;53.30;;;;;;4378021;28;10000816;-62
2021/05/10 10:03:57;;;;;;;2.72;1.60;;;21.30;52.70;;;;;;5094183;28;20136;-63
2021/05/10 10:06:23;;;;;;;3.22;1.60;;;21.40;53.30;;;;;;5093485;28;20084;-62
2021/05/10 10:08:50;;;;;;;3.20;1.98;;;21.50;52.30;;;;;;5091349;28;20031;-62
2021/05/10 10:11:18;;;;;;;2.38;1.60;;;21.50;52.30;;;;;;5092792;28;20252;-62
2021/05/10 10:13:49;;;;;;;2.78;1.70;;;21.60;52.80;;;;;;5097146;27;20326;-63
2021/05/10 10:16:18;;;;;;;4.53;1.83;;;21.60;53.20;;;;;;5094914;28;20032;-62
2021/05/10 10:18:45;;;;;;;3.03;1.73;;;21.40;52.70;;;;;;5095253;27;20035;-62
2021/05/10 10:21:13;;;;;;;3.13;1.90;;;21.30;52.60;;;;;;5096795;28;20031;-62
2021/05/10 10:23:39;;;;;;;1.88;1.63;;;21.10;53.30;;;;;;5104826;28;20027;-62
2021/05/10 10:26:09;;;;;;;2.30;2.00;;;21.10;54.60;;;;;;5106155;28;20036;-63
2021/05/10 10:28:36;;;;;;;3.00;1.80;;;21.00;54.50;;;;;;5084456;27;20051;-63
2021/05/10 10:31:06;;;;;;;2.22;1.80;;;20.80;55.50;;;;;;5103386;27;20040;-62
2021/05/10 10:33:35;;;;;;;2.38;1.60;;;20.80;54.30;;;;;;5101450;28;20036;-62
2021/05/10 10:36:01;;;;;;;2.43;1.77;;;20.80;53.90;;;;;;5102512;28;20108;-62
2021/05/10 10:38:33;;;;;;;2.70;1.83;;;20.70;54.30;;;;;;5104777;27;20027;-62
2021/05/10 10:41:16;;;;;;;6.72;1.77;;;20.50;55.00;;;;;;5109565;27;20185;-62
2021/05/10 10:43:42;;;;;;;2.30;1.90;;;20.30;57.40;;;;;;5102749;28;20103;-62
2021/05/10 10:46:21;;;;;;;2.38;1.70;;;19.70;58.90;;;;;;5101015;27;20497;-62
2021/05/10 10:48:48;;;;;;;1.75;1.25;;;18.90;62.90;;;;;;5098557;28;20084;-63
2021/05/10 10:51:15;;;;;;;1.52;1.20;;;18.20;63.30;;;;;;5106919;28;20152;-62
2021/05/10 10:53:55;;;;;;;2.58;1.50;;;16.70;66.50;;;;;;5104860;27;20086;-62
2021/05/10 10:56:54;;;;;;;3.20;1.65;;;17.20;67.00;;;;;;5104317;27;20096;-62
2021/05/10 10:59:27;;;;;;;1.40;1.20;;;17.00;68.20;;;;;;5106709;27;20091;-62
2021/05/10 11:01:53;;;;;;;2.60;1.80;;;16.80;67.30;;;;;;5099155;28;20092;-63
2021/05/10 11:04:27;;;;;;;1.75;1.52;;;16.70;67.00;;;;;;5111511;28;20191;-63
2021/05/10 11:06:54;;;;;;;2.22;1.60;;;16.70;67.40;;;;;;5106210;28;20095;-62
2021/05/10 11:09:45;;;;;;;1.90;1.70;;;16.60;68.10;;;;;;5108825;28;20512;-62
2021/05/10 11:12:49;;;;;;;2.60;2.20;;;16.70;67.30;;;;;;5085824;28;20161;-61
2021/05/10 11:15:36;;;;;;;2.25;1.90;;;16.70;68.80;;;;;;5108207;28;20165;-62
2021/05/10 11:18:03;;;;;;;2.92;1.77;;;17.30;63.70;;;;;;5093043;27;20114;-63
2021/05/10 11:20:45;;;;;;;1.70;1.38;;;17.10;63.90;;;;;;5102906;28;20116;-62
2021/05/10 11:23:23;;;;;;;1.63;1.25;;;17.30;64.70;;;;;;5102224;28;20556;-61
2021/05/10 11:25:50;;;;;;;2.10;1.60;;;17.40;63.70;;;;;;5106683;28;20441;-61
2021/05/10 11:28:28;;;;;;;2.13;1.70;;;17.40;63.50;;;;;;5088689;27;20175;-62
2021/05/10 11:30:59;;;;;;;2.30;1.85;;;17.40;63.10;;;;;;5107904;28;20118;-61
2021/05/10 11:36:32;;;;;;;1.95;1.52;;;17.30;61.40;;;;;;5104442;28;20087;-62
2021/05/10 11:39:10;;;;;;;2.30;1.60;;;17.10;60.40;;;;;;5109975;27;20122;-62
2021/05/10 11:41:43;;;;;;;2.15;1.67;;;16.90;60.50;;;;;;5102455;27;20171;-62
2021/05/10 11:44:24;;;;;;;2.60;1.65;;;17.00;62.00;;;;;;5106012;28;20103;-62
2021/05/10 11:46:53;;;;;;;2.13;1.20;;;17.00;63.00;;;;;;5107037;27;20128;-62
2021/05/10 11:49:41;;;;;;;2.35;1.70;;;16.80;62.70;;;;;;5107604;27;20580;-62
2021/05/10 11:52:20;;;;;;;2.87;1.80;;;15.20;62.70;;;;;;5108246;28;20139;-62
2021/05/10 11:54:50;;;;;;;2.30;1.73;;;16.80;64.00;;;;;;5107845;28;20114;-61
2021/05/10 11:57:31;;;;;;;2.13;1.75;;;17.00;63.40;;;;;;5089932;27;20098;-62
2021/05/10 12:00:00;;;;;;;2.95;1.60;;;18.50;64.40;;;;;;5107749;27;20543;-62
2021/05/10 12:02:33;;;;;;;2.78;1.67;;;17.00;63.70;;;;;;5107363;27;20178;-62
2021/05/10 12:05:07;;;;;;;1.52;1.40;;;17.20;63.90;;;;;;5108657;28;20607;-62
2021/05/10 12:07:34;;;;;;;3.35;1.90;;;17.30;63.20;;;;;;5103133;27;20460;-62
2021/05/10 12:10:07;;;;;;;1.50;1.40;;;17.40;62.30;;;;;;5108454;28;20083;-62
2021/05/10 12:12:38;;;;;;;2.75;1.75;;;17.50;61.40;;;;;;5106944;27;20170;-63
2021/05/10 12:15:26;;;;;;;2.60;1.75;;;17.50;61.70;;;;;;5100431;28;20092;-62
2021/05/10 12:18:04;;;;;;;1.77;1.42;;;17.60;60.30;;;;;;5106604;28;20121;-63
2021/05/10 12:20:32;;;;;;;3.38;1.90;;;17.40;61.70;;;;;;5109969;28;20160;-64
2021/05/10 12:23:02;;;;;;;2.47;1.95;;;17.40;62.80;;;;;;5100694;27;20090;-63
2021/05/10 12:25:32;;;;;;;3.28;2.05;;;17.60;61.50;;;;;;5105949;28;20091;-63
2021/05/10 12:28:12;;;;;;;3.45;2.30;;;17.70;61.40;;;;;;5100642;28;20091;-63
2021/05/10 12:30:50;;;;;;;3.53;2.20;;;17.80;61.60;;;;;;5107475;27;20160;-63
2021/05/10 12:33:19;;;;;;;5.15;2.35;;;17.80;61.80;;;;;;5099806;27;20087;-63
2021/05/10 12:35:47;;;;;;;2.50;1.77;;;17.70;62.40;;;;;;5101170;28;20248;-62
2021/05/10 12:38:23;;;;;;;3.78;2.13;;;17.70;62.10;;;;;;5085953;28;20121;-62
2021/05/10 12:40:50;;;;;;;2.97;2.25;;;17.70;63.40;;;;;;5101774;28;20123;-62
2021/05/10 12:43:17;;;;;;;3.83;2.33;;;17.60;64.30;;;;;;5102954;28;20089;-63
2021/05/10 12:46:04;;;;;;;3.63;2.40;;;17.00;63.50;;;;;;5107164;28;20088;-62
2021/05/10 12:48:39;;;;;;;2.85;2.30;;;17.60;64.50;;;;;;5108575;28;20076;-62
2021/05/10 12:51:15;;;;;;;2.95;2.10;;;17.50;65.20;;;;;;5086865;28;20534;-62
2021/05/10 12:53:52;;;;;;;3.88;2.33;;;17.40;65.40;;;;;;5094437;28;20146;-62
2021/05/10 12:56:19;;;;;;;3.55;2.28;;;17.40;65.80;;;;;;5102811;28;20084;-62
2021/05/10 12:58:47;;;;;;;3.75;2.38;;;17.40;65.90;;;;;;5104610;27;20441;-62
2021/05/10 13:01:23;;;;;;;3.65;2.28;;;17.40;66.10;;;;;;5109409;28;20079;-62
2021/05/10 13:04:01;;;;;;;3.85;2.58;;;17.40;66.10;;;;;;5089438;28;20072;-62
2021/05/10 13:06:28;;;;;;;3.28;2.22;;;17.30;66.30;;;;;;5080898;28;20100;-62
2021/05/10 13:08:55;;;;;;;4.10;2.30;;;17.40;66.10;;;;;;5107171;28;20125;-62